createdAt,value
2023-02-02T00:00:45.144Z,2.47
2023-02-02T00:03:11.604Z,2.50
2023-02-02T00:05:38.062Z,3.03
2023-02-02T00:08:04.859Z,3.22
2023-02-02T00:10:31.284Z,2.40
2023-02-02T00:12:57.865Z,2.28
2023-02-02T00:15:25.067Z,2.63
2023-02-02T00:17:51.725Z,2.67
2023-02-02T00:20:20.446Z,2.15
2023-02-02T00:22:46.886Z,2.72
2023-02-02T00:25:13.377Z,2.80
2023-02-02T00:27:39.853Z,2.30
2023-02-02T00:30:07.310Z,3.13
2023-02-02T00:32:33.914Z,2.47
2023-02-02T00:35:00.421Z,3.47
2023-02-02T00:37:26.908Z,2.17
2023-02-02T00:39:53.382Z,2.30
2023-02-02T00:42:19.879Z,2.42
2023-02-02T00:44:46.313Z,3.17
2023-02-02T00:47:12.770Z,2.20
2023-02-02T00:49:39.276Z,2.40
2023-02-02T00:52:05.769Z,1.60
2023-02-02T00:54:32.343Z,2.53
2023-02-02T00:56:58.881Z,2.40
2023-02-02T00:59:25.365Z,1.70
2023-02-02T01:01:52.021Z,2.17
2023-02-02T01:04:18.522Z,1.73
2023-02-02T01:06:46.203Z,2.58
2023-02-02T01:09:12.964Z,2.25
2023-02-02T01:11:39.429Z,2.22
2023-02-02T01:14:06.096Z,1.80
2023-02-02T01:16:34.277Z,1.92
2023-02-02T01:19:00.815Z,2.38
2023-02-02T01:21:27.609Z,2.28
2023-02-02T01:23:54.064Z,2.47
2023-02-02T01:26:20.516Z,2.00
2023-02-02T01:28:47.289Z,2.25
2023-02-02T01:31:17.147Z,2.67
2023-02-02T01:33:45.209Z,2.28
2023-02-02T01:36:15.512Z,2.05
2023-02-02T01:38:43.260Z,1.80
2023-02-02T01:41:14.110Z,1.83
2023-02-02T01:43:43.650Z,2.40
2023-02-02T01:46:18.923Z,1.63
2023-02-02T01:48:54.953Z,2.00
2023-02-02T01:51:25.187Z,2.08
2023-02-02T01:53:54.597Z,1.67
2023-02-02T01:56:46.813Z,2.13
2023-02-02T01:59:16.333Z,1.80
2023-02-02T02:01:46.350Z,1.52
2023-02-02T02:04:13.560Z,1.50
2023-02-02T02:06:40.146Z,1.85
2023-02-02T02:09:08.276Z,1.67
2023-02-02T02:11:37.148Z,1.63
2023-02-02T02:14:07.995Z,1.63
2023-02-02T02:16:46.709Z,2.10
2023-02-02T02:19:31.845Z,2.17
2023-02-02T02:22:14.516Z,1.50
2023-02-02T02:25:01.266Z,1.63
2023-02-02T02:28:22.604Z,2.30
2023-02-02T02:31:07.323Z,2.10
2023-02-02T02:33:53.462Z,1.40
2023-02-02T02:36:25.111Z,2.33
2023-02-02T02:39:13.295Z,1.88
2023-02-02T02:41:45.986Z,1.45
2023-02-02T02:44:16.198Z,1.63
2023-02-02T02:46:43.909Z,1.65
2023-02-02T02:49:12.686Z,1.50
2023-02-02T02:51:50.239Z,1.45
2023-02-02T02:54:32.642Z,2.30
2023-02-02T02:57:22.753Z,1.63
2023-02-02T03:00:02.841Z,3.00
2023-02-02T03:03:01.406Z,1.67
2023-02-02T03:05:44.826Z,1.80
2023-02-02T03:08:27.311Z,1.58
2023-02-02T03:10:56.599Z,1.55
2023-02-02T03:13:23.509Z,2.60
2023-02-02T03:15:50.005Z,2.00
2023-02-02T03:18:19.080Z,1.40
2023-02-02T03:20:45.984Z,1.98
2023-02-02T03:23:13.237Z,2.13
2023-02-02T03:25:39.762Z,1.80
2023-02-02T03:28:06.983Z,1.48
2023-02-02T03:30:34.401Z,1.80
2023-02-02T03:33:00.924Z,2.03
2023-02-02T03:35:27.367Z,1.60
2023-02-02T03:37:53.792Z,2.63
2023-02-02T03:40:20.328Z,3.70
2023-02-02T03:42:46.760Z,1.60
2023-02-02T03:45:13.505Z,1.90
2023-02-02T03:47:39.975Z,1.65
2023-02-02T03:50:09.799Z,2.10
2023-02-02T03:52:36.395Z,1.90
2023-02-02T03:55:03.401Z,2.00
2023-02-02T03:57:29.830Z,1.70
2023-02-02T03:59:56.322Z,1.88
2023-02-02T04:02:23.251Z,1.80
2023-02-02T04:04:49.706Z,1.85
2023-02-02T04:07:16.236Z,1.60
2023-02-02T04:09:42.759Z,2.50
2023-02-02T04:12:09.249Z,1.58
2023-02-02T04:14:35.803Z,1.52
2023-02-02T04:17:02.291Z,1.42
2023-02-02T04:19:28.764Z,1.10
2023-02-02T04:21:55.228Z,1.30
2023-02-02T04:24:21.762Z,1.42
2023-02-02T04:26:48.281Z,1.23
2023-02-02T04:29:14.802Z,2.50
2023-02-02T04:31:41.309Z,1.65
2023-02-02T04:34:07.754Z,1.20
2023-02-02T04:36:34.380Z,2.38
2023-02-02T04:39:00.892Z,1.60
2023-02-02T04:41:27.388Z,1.60
2023-02-02T04:43:53.834Z,1.70
2023-02-02T04:46:20.351Z,1.50
2023-02-02T04:48:48.787Z,1.65
2023-02-02T04:51:15.486Z,1.95
2023-02-02T04:53:42.862Z,2.25
2023-02-02T04:56:17.911Z,2.42
2023-02-02T04:58:45.337Z,1.77
2023-02-02T05:01:17.421Z,1.98
2023-02-02T05:03:44.858Z,2.15
2023-02-02T05:06:13.496Z,1.67
2023-02-02T05:08:41.219Z,1.58
2023-02-02T05:11:12.337Z,1.50
2023-02-02T05:13:38.818Z,1.77
2023-02-02T05:16:06.573Z,2.00
2023-02-02T05:18:33.331Z,1.90
2023-02-02T05:21:00.759Z,2.05
2023-02-02T05:23:27.434Z,1.70
2023-02-02T05:25:54.975Z,1.85
2023-02-02T05:28:23.128Z,1.75
2023-02-02T05:30:50.110Z,0.98
2023-02-02T05:33:17.121Z,1.60
2023-02-02T05:35:48.195Z,1.40
2023-02-02T05:38:15.744Z,1.88
2023-02-02T05:40:42.508Z,1.35
2023-02-02T05:43:09.013Z,2.58
2023-02-02T05:45:35.468Z,2.13
2023-02-02T05:48:01.972Z,1.83
2023-02-02T05:50:28.462Z,1.92
2023-02-02T05:53:03.220Z,1.50
2023-02-02T05:55:29.794Z,1.30
2023-02-02T05:57:56.192Z,1.75
2023-02-02T06:00:22.938Z,1.73
2023-02-02T06:02:49.412Z,1.88
2023-02-02T06:05:15.995Z,1.80
2023-02-02T06:07:42.487Z,1.50
2023-02-02T06:10:09.263Z,1.67
2023-02-02T06:12:35.691Z,1.70
2023-02-02T06:15:02.180Z,2.35
2023-02-02T06:17:28.629Z,1.70
2023-02-02T06:19:55.122Z,1.60
2023-02-02T06:22:21.648Z,1.50
2023-02-02T06:24:48.192Z,2.20
2023-02-02T06:27:14.635Z,1.92
2023-02-02T06:29:41.126Z,1.48
2023-02-02T06:32:07.616Z,1.45
2023-02-02T06:34:34.095Z,1.75
2023-02-02T06:37:00.580Z,1.58
2023-02-02T06:39:27.078Z,2.90
2023-02-02T06:41:53.516Z,1.60
2023-02-02T06:44:20.100Z,1.30
2023-02-02T06:46:46.768Z,2.33
2023-02-02T06:49:13.409Z,1.88
2023-02-02T06:51:39.860Z,2.35
2023-02-02T06:54:06.302Z,2.10
2023-02-02T06:56:32.805Z,1.75
2023-02-02T06:58:59.246Z,1.55
2023-02-02T07:01:25.792Z,2.08
2023-02-02T07:03:53.341Z,1.90
2023-02-02T07:06:25.636Z,1.85
2023-02-02T07:08:57.613Z,1.90
2023-02-02T07:11:29.057Z,1.85
2023-02-02T07:13:55.661Z,1.27
2023-02-02T07:16:22.128Z,1.83
2023-02-02T07:18:48.689Z,1.50
2023-02-02T07:21:20.842Z,1.58
2023-02-02T07:23:47.432Z,1.73
2023-02-02T07:26:15.125Z,2.58
2023-02-02T07:28:42.158Z,2.03
2023-02-02T07:31:18.228Z,1.65
2023-02-02T07:33:45.819Z,1.88
2023-02-02T07:36:14.251Z,1.65
2023-02-02T07:38:40.735Z,1.33
2023-02-02T07:41:07.244Z,1.92
2023-02-02T07:43:33.788Z,1.30
2023-02-02T07:46:02.145Z,1.33
2023-02-02T07:48:32.047Z,1.30
2023-02-02T07:51:00.051Z,2.35
2023-02-02T07:53:27.603Z,1.48
2023-02-02T07:55:54.213Z,1.40
2023-02-02T07:58:20.659Z,1.30
2023-02-02T08:00:47.263Z,1.15
2023-02-02T08:03:13.782Z,1.27
2023-02-02T08:05:40.393Z,1.83
2023-02-02T08:08:06.905Z,1.40
2023-02-02T08:10:33.371Z,3.08
2023-02-02T08:12:59.904Z,1.45
2023-02-02T08:15:26.630Z,1.48
2023-02-02T08:17:53.251Z,2.88
2023-02-02T08:20:19.711Z,1.80
2023-02-02T08:22:46.208Z,1.77
2023-02-02T08:25:12.649Z,2.15
2023-02-02T08:27:39.296Z,1.30
2023-02-02T08:30:06.187Z,2.47
2023-02-02T08:32:32.691Z,1.88
2023-02-02T08:34:59.130Z,1.60
2023-02-02T08:37:25.609Z,1.55
2023-02-02T08:39:52.037Z,1.17
2023-02-02T08:42:18.495Z,1.60
2023-02-02T08:46:02.798Z,1.17
2023-02-02T08:47:31.467Z,0.98
2023-02-02T08:49:57.965Z,1.08
2023-02-02T08:52:25.857Z,1.20
2023-02-02T08:54:52.418Z,1.20
2023-02-02T08:57:18.892Z,1.00
2023-02-02T08:59:45.325Z,1.17
2023-02-02T09:02:11.835Z,1.52
2023-02-02T09:04:38.311Z,1.90
2023-02-02T09:07:04.777Z,1.40
2023-02-02T09:09:31.207Z,1.70
2023-02-02T09:11:57.732Z,1.40
2023-02-02T09:14:24.254Z,1.00
2023-02-02T09:16:50.914Z,1.02
2023-02-02T09:19:17.427Z,1.10
2023-02-02T09:21:43.898Z,1.52
2023-02-02T09:24:12.558Z,1.23
2023-02-02T09:26:39.730Z,1.20
2023-02-02T09:29:08.530Z,1.48
2023-02-02T09:31:37.222Z,1.25
2023-02-02T09:34:06.252Z,1.35
2023-02-02T09:36:33.530Z,1.88
2023-02-02T09:39:00.318Z,1.70
2023-02-02T09:41:38.682Z,1.80
2023-02-02T09:44:24.427Z,1.60
2023-02-02T09:47:21.448Z,1.48
2023-02-02T09:50:16.078Z,1.80
2023-02-02T09:52:45.369Z,1.50
2023-02-02T09:55:14.132Z,1.52
2023-02-02T09:57:48.855Z,1.33
2023-02-02T10:00:36.231Z,1.13
2023-02-02T10:03:22.680Z,1.70
2023-02-02T10:05:57.378Z,1.25
2023-02-02T10:08:38.542Z,1.10
2023-02-02T10:11:25.924Z,1.30
2023-02-02T10:13:56.748Z,1.30
2023-02-02T10:16:24.827Z,2.28
2023-02-02T10:19:04.586Z,1.30
2023-02-02T10:21:59.170Z,1.38
2023-02-02T10:24:29.275Z,2.40
2023-02-02T10:26:59.674Z,1.20
2023-02-02T10:29:48.613Z,1.33
2023-02-02T10:32:28.672Z,1.65
2023-02-02T10:35:18.238Z,1.23
2023-02-02T10:38:13.448Z,1.50
2023-02-02T10:40:46.113Z,1.23
2023-02-02T10:43:27.511Z,1.73
2023-02-02T10:45:56.037Z,1.00
2023-02-02T10:48:26.510Z,1.10
2023-02-02T10:50:57.803Z,1.13
2023-02-02T10:53:28.401Z,1.05
2023-02-02T10:56:08.721Z,0.90
2023-02-02T10:58:54.834Z,1.17
2023-02-02T11:01:21.351Z,0.80
2023-02-02T11:03:48.659Z,0.98
2023-02-02T11:06:16.219Z,0.93
2023-02-02T11:08:44.625Z,1.15
2023-02-02T11:11:17.410Z,1.10
2023-02-02T11:13:50.723Z,0.90
2023-02-02T11:16:17.284Z,0.75
2023-02-02T11:18:45.004Z,1.05
2023-02-02T11:21:24.446Z,0.82
2023-02-02T11:23:53.799Z,0.73
2023-02-02T11:26:21.908Z,0.82
2023-02-02T11:28:49.557Z,0.63
2023-02-02T11:31:35.599Z,0.70
2023-02-02T11:34:28.528Z,0.65
2023-02-02T11:37:21.377Z,0.55
2023-02-02T11:39:48.061Z,0.65
2023-02-02T11:42:20.808Z,0.60
2023-02-02T11:44:53.468Z,0.52
2023-02-02T11:47:30.359Z,0.70
2023-02-02T11:49:58.795Z,0.73
2023-02-02T11:52:29.641Z,0.93
2023-02-02T11:55:01.419Z,0.70
2023-02-02T11:57:29.098Z,0.73
2023-02-02T12:00:10.901Z,0.90
2023-02-02T12:02:37.496Z,0.60
2023-02-02T12:05:10.010Z,0.60
2023-02-02T12:07:36.648Z,0.80
2023-02-02T12:10:18.788Z,1.30
2023-02-02T12:12:54.662Z,0.60
2023-02-02T12:15:25.930Z,0.68
2023-02-02T12:18:01.908Z,0.70
2023-02-02T12:21:00.596Z,0.77
2023-02-02T12:23:55.057Z,0.90
2023-02-02T12:26:27.276Z,0.80
2023-02-02T12:29:16.785Z,0.63
2023-02-02T12:32:20.767Z,0.63
2023-02-02T12:35:05.198Z,0.75
2023-02-02T12:37:57.552Z,0.65
2023-02-02T12:40:42.372Z,0.90
2023-02-02T12:43:18.996Z,0.70
2023-02-02T12:46:06.980Z,1.25
2023-02-02T12:48:45.680Z,1.90
2023-02-02T12:51:50.351Z,0.75
2023-02-02T12:54:47.866Z,0.70
2023-02-02T12:57:54.871Z,0.90
2023-02-02T13:00:38.855Z,0.70
2023-02-02T13:03:15.842Z,0.82
2023-02-02T13:05:50.310Z,0.68
2023-02-02T13:08:23.558Z,0.80
2023-02-02T13:10:54.787Z,0.98
2023-02-02T13:13:36.110Z,0.93
2023-02-02T13:16:21.034Z,0.80
2023-02-02T13:18:54.944Z,0.90
2023-02-02T13:21:24.600Z,1.00
2023-02-02T13:23:55.651Z,1.10
2023-02-02T13:26:44.201Z,0.90
2023-02-02T13:29:10.679Z,1.70
2023-02-02T13:31:51.716Z,1.90
2023-02-02T13:34:24.399Z,1.17
2023-02-02T13:36:59.324Z,0.80
2023-02-02T13:39:34.854Z,0.93
2023-02-02T13:42:03.154Z,0.88
2023-02-02T13:44:38.234Z,0.98
2023-02-02T13:47:34.976Z,1.42
2023-02-02T13:50:09.809Z,1.02
2023-02-02T13:52:45.111Z,1.00
2023-02-02T13:55:26.901Z,1.00
2023-02-02T13:58:19.302Z,1.00
2023-02-02T14:00:49.610Z,1.00
2023-02-02T14:03:48.335Z,0.80
2023-02-02T14:06:22.268Z,0.88
2023-02-02T14:09:01.448Z,0.90
2023-02-02T14:11:32.662Z,1.00
2023-02-02T14:14:21.261Z,0.90
2023-02-02T14:16:49.703Z,1.08
2023-02-02T14:19:41.552Z,1.00
2023-02-02T14:22:11.481Z,0.90
2023-02-02T14:24:37.903Z,1.20
2023-02-02T14:27:07.496Z,0.95
2023-02-02T14:29:35.209Z,1.02
2023-02-02T14:32:37.324Z,0.93
2023-02-02T14:35:12.915Z,1.08
2023-02-02T14:37:51.156Z,0.90
2023-02-02T14:40:53.029Z,0.90
2023-02-02T14:46:14.976Z,0.68
2023-02-02T14:48:46.561Z,0.65
2023-02-02T14:53:54.903Z,0.30
2023-02-02T14:56:39.983Z,0.60
2023-02-02T14:59:06.957Z,0.30
2023-02-02T15:01:35.493Z,0.60
2023-02-02T15:04:23.927Z,0.50
2023-02-02T15:06:51.884Z,0.40
2023-02-02T15:09:21.137Z,0.50
2023-02-02T15:12:01.655Z,0.45
2023-02-02T15:14:28.401Z,0.50
2023-02-02T15:16:55.643Z,0.40
2023-02-02T15:19:34.219Z,0.40
2023-02-02T15:22:18.432Z,0.60
2023-02-02T15:24:45.822Z,0.40
2023-02-02T15:27:18.393Z,0.50
2023-02-02T15:29:49.338Z,0.43
2023-02-02T15:32:18.873Z,0.50
2023-02-02T15:34:48.242Z,0.38
2023-02-02T15:37:19.962Z,0.80
2023-02-02T15:39:51.007Z,0.40
2023-02-02T15:42:41.192Z,0.47
2023-02-02T15:45:27.704Z,0.60
2023-02-02T15:47:55.636Z,0.52
2023-02-02T15:50:22.354Z,0.70
2023-02-02T15:52:50.983Z,0.50
2023-02-02T15:55:30.435Z,0.50
2023-02-02T15:57:57.182Z,0.60
2023-02-02T16:00:32.722Z,0.63
2023-02-02T16:02:59.200Z,0.43
2023-02-02T16:05:31.440Z,0.70
2023-02-02T16:08:05.610Z,0.55
2023-02-02T16:10:33.807Z,0.50
2023-02-02T16:13:00.348Z,0.60
2023-02-02T16:15:28.917Z,0.40
2023-02-02T16:17:59.218Z,0.52
2023-02-02T16:20:28.153Z,0.60
2023-02-02T16:22:57.324Z,0.60
2023-02-02T16:25:24.154Z,0.55
2023-02-02T16:27:51.190Z,0.50
2023-02-02T16:30:47.777Z,0.70
2023-02-02T16:33:30.824Z,0.70
2023-02-02T16:35:57.724Z,0.50
2023-02-02T16:38:35.154Z,0.65
2023-02-02T16:41:13.581Z,0.50
2023-02-02T16:43:42.084Z,0.95
2023-02-02T16:46:14.003Z,0.90
2023-02-02T16:48:58.245Z,0.70
2023-02-02T16:51:28.737Z,0.40
2023-02-02T16:54:06.322Z,0.65
2023-02-02T16:56:38.299Z,0.52
2023-02-02T16:59:13.767Z,0.60
2023-02-02T17:01:48.522Z,0.60
2023-02-02T17:04:26.031Z,0.80
2023-02-02T17:06:55.130Z,1.00
2023-02-02T17:09:33.137Z,0.70
2023-02-02T17:12:32.144Z,0.60
2023-02-02T17:15:02.898Z,0.65
2023-02-02T17:17:29.394Z,0.80
2023-02-02T17:19:56.318Z,0.77
2023-02-02T17:22:25.941Z,0.60
2023-02-02T17:24:53.040Z,0.60
2023-02-02T17:27:29.009Z,0.57
2023-02-02T17:29:56.825Z,0.65
2023-02-02T17:32:23.345Z,0.98
2023-02-02T17:34:49.849Z,2.97
2023-02-02T17:37:16.370Z,2.03
2023-02-02T17:39:42.985Z,1.75
2023-02-02T17:42:35.793Z,2.17
2023-02-02T17:45:02.270Z,1.80
2023-02-02T17:47:28.824Z,1.25
2023-02-02T17:49:55.417Z,1.75
2023-02-02T17:52:21.901Z,1.75
2023-02-02T17:54:48.395Z,1.88
2023-02-02T17:57:14.899Z,2.15
2023-02-02T17:59:41.378Z,2.70
2023-02-02T18:02:12.699Z,3.08
2023-02-02T18:04:39.237Z,3.20
2023-02-02T18:07:05.760Z,3.03
2023-02-02T18:09:33.790Z,2.78
2023-02-02T18:12:00.446Z,1.73
2023-02-02T18:14:26.973Z,2.00
2023-02-02T18:16:53.459Z,1.92
2023-02-02T18:19:19.963Z,1.85
2023-02-02T18:21:46.423Z,2.15
2023-02-02T18:24:13.601Z,1.65
2023-02-02T18:26:40.107Z,2.10
2023-02-02T18:29:06.925Z,3.13
2023-02-02T18:31:33.515Z,2.97
2023-02-02T18:34:00.226Z,1.80
2023-02-02T18:36:26.712Z,1.70
2023-02-02T18:38:53.217Z,1.98
2023-02-02T18:41:20.490Z,2.30
2023-02-02T18:43:47.511Z,1.70
2023-02-02T18:46:15.791Z,1.65
2023-02-02T18:48:42.907Z,1.63
2023-02-02T18:51:15.040Z,2.13
2023-02-02T18:53:46.129Z,2.00
2023-02-02T18:56:14.689Z,1.80
2023-02-02T18:58:41.579Z,1.75
2023-02-02T19:01:16.347Z,2.80
2023-02-02T19:03:47.128Z,2.10
2023-02-02T19:06:13.760Z,2.78
2023-02-02T19:08:40.239Z,2.20
2023-02-02T19:11:15.146Z,2.00
2023-02-02T19:13:41.652Z,2.30
2023-02-02T19:16:40.516Z,1.92
2023-02-02T19:19:22.008Z,2.20
2023-02-02T19:21:48.697Z,2.47
2023-02-02T19:24:15.147Z,2.33
2023-02-02T19:26:46.164Z,2.38
2023-02-02T19:29:23.315Z,1.88
2023-02-02T19:31:58.662Z,2.35
2023-02-02T19:34:25.239Z,2.33
2023-02-02T19:36:51.773Z,3.47
2023-02-02T19:39:29.703Z,3.03
2023-02-02T19:42:00.418Z,3.75
2023-02-02T19:44:31.016Z,2.42
2023-02-02T19:46:57.829Z,2.90
2023-02-02T19:49:32.283Z,2.70
2023-02-02T19:51:59.709Z,1.80
2023-02-02T19:54:28.024Z,2.63
2023-02-02T19:57:13.757Z,1.90
2023-02-02T19:59:41.716Z,2.70
2023-02-02T20:02:37.367Z,2.33
2023-02-02T20:05:17.588Z,2.47
2023-02-02T20:07:44.116Z,1.90
2023-02-02T20:10:23.781Z,2.38
2023-02-02T20:12:51.758Z,3.40
2023-02-02T20:15:34.421Z,2.00
2023-02-02T20:18:05.147Z,2.25
2023-02-02T20:20:43.767Z,2.43
2023-02-02T20:23:35.934Z,2.47
2023-02-02T20:26:07.728Z,2.00
2023-02-02T20:28:45.103Z,2.17
2023-02-02T20:31:18.279Z,1.95
2023-02-02T20:33:51.957Z,2.47
2023-02-02T20:36:30.131Z,2.33
2023-02-02T20:39:00.058Z,2.03
2023-02-02T20:41:26.826Z,2.30
2023-02-02T20:43:53.315Z,1.65
2023-02-02T20:46:19.866Z,2.17
2023-02-02T20:48:46.385Z,2.13
2023-02-02T20:51:12.910Z,2.20
2023-02-02T20:53:39.614Z,2.17
2023-02-02T20:56:06.297Z,1.92
2023-02-02T20:58:32.821Z,2.75
2023-02-02T21:00:59.367Z,1.80
2023-02-02T21:03:25.881Z,1.95
2023-02-02T21:05:52.409Z,2.35
2023-02-02T21:08:18.857Z,2.72
2023-02-02T21:10:45.318Z,2.33
2023-02-02T21:13:11.817Z,1.92
2023-02-02T21:15:38.330Z,2.15
2023-02-02T21:18:04.846Z,1.92
2023-02-02T21:20:31.379Z,2.55
2023-02-02T21:22:57.850Z,1.52
2023-02-02T21:25:25.063Z,1.77
2023-02-02T21:27:57.462Z,1.30
2023-02-02T21:30:23.937Z,2.78
2023-02-02T21:32:50.472Z,1.75
2023-02-02T21:35:17.311Z,2.58
2023-02-02T21:37:43.882Z,1.48
2023-02-02T21:40:15.205Z,1.80
2023-02-02T21:42:47.689Z,2.85
2023-02-02T21:45:20.207Z,1.50
2023-02-02T21:47:53.744Z,1.88
2023-02-02T21:50:42.406Z,1.90
2023-02-02T21:53:20.683Z,2.00
2023-02-02T21:55:50.070Z,2.10
2023-02-02T21:58:35.062Z,2.05
2023-02-02T22:01:22.553Z,1.80
2023-02-02T22:03:49.407Z,2.03
2023-02-02T22:06:28.407Z,2.45
2023-02-02T22:09:26.101Z,1.85
2023-02-02T22:12:00.518Z,1.85
2023-02-02T22:14:40.900Z,1.80
2023-02-02T22:17:34.165Z,1.77
2023-02-02T22:20:07.175Z,2.53
2023-02-02T22:22:36.180Z,1.67
2023-02-02T22:25:33.430Z,2.38
2023-02-02T22:28:13.088Z,2.22
2023-02-02T22:30:41.650Z,2.00
2023-02-02T22:33:10.457Z,2.00
2023-02-02T22:35:37.946Z,2.17
2023-02-02T22:38:05.010Z,2.53
2023-02-02T22:40:31.606Z,2.13
2023-02-02T22:43:05.274Z,3.15
2023-02-02T22:45:32.028Z,2.10
2023-02-02T22:47:58.624Z,2.63
2023-02-02T22:50:28.235Z,2.17
2023-02-02T22:52:55.134Z,2.60
2023-02-02T22:55:22.224Z,2.83
2023-02-02T22:57:48.794Z,2.72
2023-02-02T23:00:21.729Z,3.22
2023-02-02T23:02:48.576Z,2.70
2023-02-02T23:05:16.970Z,2.88
2023-02-02T23:07:44.015Z,2.45
2023-02-02T23:10:17.183Z,2.33
2023-02-02T23:12:44.274Z,2.47
2023-02-02T23:15:12.289Z,2.80
2023-02-02T23:17:38.990Z,3.05
2023-02-02T23:20:07.990Z,2.20
2023-02-02T23:22:34.545Z,1.90
2023-02-02T23:25:01.030Z,3.38
2023-02-02T23:27:27.722Z,3.40
2023-02-02T23:29:54.198Z,2.47
2023-02-02T23:32:20.780Z,1.92
2023-02-02T23:34:47.315Z,2.35
2023-02-02T23:37:13.831Z,2.13
2023-02-02T23:39:40.308Z,2.67
2023-02-02T23:42:06.791Z,2.55
2023-02-02T23:44:33.228Z,3.42
2023-02-02T23:47:01.782Z,2.80
2023-02-02T23:49:30.248Z,3.50
2023-02-02T23:51:56.925Z,2.15
2023-02-02T23:54:23.499Z,2.88
2023-02-02T23:56:50.656Z,2.15
2023-02-02T23:59:17.355Z,1.90
